Latest METARs, TAFs and NOTAMs for SEGU


---------------------------------------------------------------------------
	(OBSERVATIONS)
SEGU 160700Z 21008KT  9999 FEW010 SCT023 BKN100  21/18 Q1012
    NOSIG RMK A2989=
SEGU 160600Z 21010KT  9999 FEW010 SCT026 BKN100  21/18 Q1012
    NOSIG RMK A2991=
SEGU 160500Z 21012KT  9999 SCT016 BKN100  21/18 Q1012 NOSIG RMK
    A2990=
---------------------------------------------------------------------------
	(TERMINAL AREA FORECAST)
SEGU 160430Z 1606/1706 22008KT 9999 SCT026 SCT100
    BECMG 1609/1610 BKN026 BKN090
    FM161500 16008KT 9999 SCT023 SCT100
    BECMG 1623/1624 22012KT TX29/1620Z TN20/1608Z=
---------------------------------------------------------------------------
	(NOTAMS)


SEGU A0055/09 APN NORTE CLSD POR INCIDENTE DE ACFT 27 JAN 05:30
    UNTIL 27 JAN 18:00 ESTIMATED

SEGU A0787/18 MOV AREA WIP SUBJ TFC. CTN. 10 MAY 13:02 2018 UNTIL
    18 AUG 04:59 2018. CREATED: 10 MAY 13:22 2018

SEGU A0788/18 WIP IN GREEN AREAS MOV AREA, SUBJ TFC. CTN. 10
    MAY 13:06 2018 UNTIL 18 AUG 04:59 2018. CREATED: 10 MAY 13:24
    2018

SEGU A1055/18 FORMATION FLT WILL TAKE PLACE SECT MALECON 2000.
    CTN. SFC - 10000FT AGL, 20 JUL 1530-1700 21 JUL 1730-2000,
    20 JUL 15:30 2018 UNTIL 21 JUL 20:00 2018. CREATED: 09 JUL
    21:26 2018

SEGU A1463/06 COMBUSTIBLE JET A-1 RESTRINGIDO 20 POR CIENTO 26
    DEC 20:45 2006 UNTIL 04 JAN 23:00 ESTIMATED

---------------------------------------------------------------------------